Whitney, Mississippi
Current Conditions -  °F | °C
As of 2:15 PM on Sunday 25 Jan 2015 (Local Time) from KRNV Reporting Station
Broken Clouds Broken Clouds  
Wind Chill: 58°   Ceiling: 6000
Heat Index: 58°   Visibility: 10mi
Dew Point: 44°   Wind: 15mph
Humidity: 60%   Direction: 270°W
Pressure: 29.76"   Gusts: 20mph
Location:  33.8731°N, 90.5512°W
Report Text: KRNV 252015Z AUTO 27013G17KT 10SM SCT047 BKN060 BKN075 14/07 A2976 RMK AO2 T01440067
Loading
Personal Weather Stations






























Interactive Weather Map New forecast layout! Learn more

10-Day Weather Forecast

Advertisements
Track Severe Weather on mobile